sensor_id;sensor_type;location;lat;lon;timestamp;temperature;humidity
18807;DHT22;9531;52.030;4.380;2023-03-14T00:01:09;10.60;99.90
18807;DHT22;9531;52.030;4.380;2023-03-14T00:03:37;10.60;99.90
18807;DHT22;9531;52.030;4.380;2023-03-14T00:06:06;10.60;99.90
18807;DHT22;9531;52.030;4.380;2023-03-14T00:08:34;10.60;99.90
18807;DHT22;9531;52.030;4.380;2023-03-14T00:11:05;10.60;99.90
18807;DHT22;9531;52.030;4.380;2023-03-14T00:13:32;10.60;99.90
18807;DHT22;9531;52.030;4.380;2023-03-14T00:16:02;10.60;99.90
18807;DHT22;9531;52.030;4.380;2023-03-14T00:18:30;10.60;99.90
18807;DHT22;9531;52.030;4.380;2023-03-14T00:20:58;10.60;99.90
18807;DHT22;9531;52.030;4.380;2023-03-14T00:23:28;10.60;99.90
18807;DHT22;9531;52.030;4.380;2023-03-14T00:25:59;10.60;99.90
18807;DHT22;9531;52.030;4.380;2023-03-14T00:28:26;10.60;99.90
18807;DHT22;9531;52.030;4.380;2023-03-14T00:30:53;10.60;99.90
18807;DHT22;9531;52.030;4.380;2023-03-14T00:33:21;10.60;99.90
18807;DHT22;9531;52.030;4.380;2023-03-14T00:35:53;10.60;99.90
18807;DHT22;9531;52.030;4.380;2023-03-14T00:38:20;10.60;99.90
18807;DHT22;9531;52.030;4.380;2023-03-14T00:40:48;10.60;99.90
18807;DHT22;9531;52.030;4.380;2023-03-14T00:43:16;10.60;99.90
18807;DHT22;9531;52.030;4.380;2023-03-14T00:45:43;10.60;99.90
18807;DHT22;9531;52.030;4.380;2023-03-14T00:48:10;10.60;99.90
18807;DHT22;9531;52.030;4.380;2023-03-14T00:50:37;10.60;99.90
18807;DHT22;9531;52.030;4.380;2023-03-14T00:53:04;10.60;99.90
18807;DHT22;9531;52.030;4.380;2023-03-14T00:55:31;10.60;99.90
18807;DHT22;9531;52.030;4.380;2023-03-14T00:57:59;10.60;99.90
18807;DHT22;9531;52.030;4.380;2023-03-14T01:00:26;10.60;99.90
18807;DHT22;9531;52.030;4.380;2023-03-14T01:02:53;10.50;99.90
18807;DHT22;9531;52.030;4.380;2023-03-14T01:05:21;10.50;99.90
18807;DHT22;9531;52.030;4.380;2023-03-14T01:07:48;10.50;99.90
18807;DHT22;9531;52.030;4.380;2023-03-14T01:10:15;10.50;99.90
18807;DHT22;9531;52.030;4.380;2023-03-14T01:12:42;10.50;99.90
18807;DHT22;9531;52.030;4.380;2023-03-14T01:15:11;10.50;99.90
18807;DHT22;9531;52.030;4.380;2023-03-14T01:17:38;10.50;99.90
18807;DHT22;9531;52.030;4.380;2023-03-14T01:20:11;10.50;99.90
18807;DHT22;9531;52.030;4.380;2023-03-14T01:22:39;10.50;99.90
18807;DHT22;9531;52.030;4.380;2023-03-14T01:25:07;10.50;99.90
18807;DHT22;9531;52.030;4.380;2023-03-14T01:27:34;10.50;99.90
18807;DHT22;9531;52.030;4.380;2023-03-14T01:30:02;10.50;99.90
18807;DHT22;9531;52.030;4.380;2023-03-14T01:32:32;10.40;99.90
18807;DHT22;9531;52.030;4.380;2023-03-14T01:34:58;10.40;99.90
18807;DHT22;9531;52.030;4.380;2023-03-14T01:37:26;10.40;99.90
18807;DHT22;9531;52.030;4.380;2023-03-14T01:39:53;10.40;99.90
18807;DHT22;9531;52.030;4.380;2023-03-14T01:42:20;10.40;99.90
18807;DHT22;9531;52.030;4.380;2023-03-14T01:44:52;10.40;99.90
18807;DHT22;9531;52.030;4.380;2023-03-14T01:47:20;10.40;99.90
18807;DHT22;9531;52.030;4.380;2023-03-14T01:49:51;10.40;99.90
18807;DHT22;9531;52.030;4.380;2023-03-14T01:52:24;10.40;99.90
18807;DHT22;9531;52.030;4.380;2023-03-14T01:54:54;10.40;99.90
18807;DHT22;9531;52.030;4.380;2023-03-14T01:57:24;10.40;99.90
18807;DHT22;9531;52.030;4.380;2023-03-14T01:59:55;10.40;99.90
18807;DHT22;9531;52.030;4.380;2023-03-14T02:02:24;10.40;99.90
18807;DHT22;9531;52.030;4.380;2023-03-14T02:04:55;10.40;99.90
18807;DHT22;9531;52.030;4.380;2023-03-14T02:07:25;10.40;99.90
18807;DHT22;9531;52.030;4.380;2023-03-14T02:09:56;10.40;99.90
18807;DHT22;9531;52.030;4.380;2023-03-14T02:12:25;10.40;99.90
18807;DHT22;9531;52.030;4.380;2023-03-14T02:14:52;10.40;99.90
18807;DHT22;9531;52.030;4.380;2023-03-14T02:17:20;10.40;99.90
18807;DHT22;9531;52.030;4.380;2023-03-14T02:20:08;10.40;99.90
18807;DHT22;9531;52.030;4.380;2023-03-14T02:22:37;10.40;99.90
18807;DHT22;9531;52.030;4.380;2023-03-14T02:25:08;10.40;99.90
18807;DHT22;9531;52.030;4.380;2023-03-14T02:27:39;10.40;99.90
18807;DHT22;9531;52.030;4.380;2023-03-14T02:30:10;10.40;99.90
18807;DHT22;9531;52.030;4.380;2023-03-14T02:32:40;10.30;99.90
18807;DHT22;9531;52.030;4.380;2023-03-14T02:35:11;10.30;99.90
18807;DHT22;9531;52.030;4.380;2023-03-14T02:37:41;10.30;99.90
18807;DHT22;9531;52.030;4.380;2023-03-14T02:40:10;10.30;99.90
18807;DHT22;9531;52.030;4.380;2023-03-14T02:42:39;10.30;99.90
18807;DHT22;9531;52.030;4.380;2023-03-14T02:45:35;10.30;99.90
18807;DHT22;9531;52.030;4.380;2023-03-14T02:48:05;10.30;99.90
18807;DHT22;9531;52.030;4.380;2023-03-14T02:50:34;10.30;99.90
18807;DHT22;9531;52.030;4.380;2023-03-14T02:53:02;10.30;99.90
18807;DHT22;9531;52.030;4.380;2023-03-14T02:55:29;10.30;99.90
18807;DHT22;9531;52.030;4.380;2023-03-14T02:57:58;10.30;99.90
18807;DHT22;9531;52.030;4.380;2023-03-14T03:00:25;10.20;99.90
18807;DHT22;9531;52.030;4.380;2023-03-14T03:02:52;10.20;99.90
18807;DHT22;9531;52.030;4.380;2023-03-14T03:05:19;10.30;99.90
18807;DHT22;9531;52.030;4.380;2023-03-14T03:07:46;10.20;99.90
18807;DHT22;9531;52.030;4.380;2023-03-14T03:10:13;10.20;99.90
18807;DHT22;9531;52.030;4.380;2023-03-14T03:12:40;10.20;99.90
18807;DHT22;9531;52.030;4.380;2023-03-14T03:15:09;10.20;99.90
18807;DHT22;9531;52.030;4.380;2023-03-14T03:17:36;10.20;99.90
18807;DHT22;9531;52.030;4.380;2023-03-14T03:20:03;10.20;99.90
18807;DHT22;9531;52.030;4.380;2023-03-14T03:22:34;10.20;99.90
18807;DHT22;9531;52.030;4.380;2023-03-14T03:25:02;10.20;99.90
18807;DHT22;9531;52.030;4.380;2023-03-14T03:27:30;10.20;99.90
18807;DHT22;9531;52.030;4.380;2023-03-14T03:29:57;10.20;99.90
18807;DHT22;9531;52.030;4.380;2023-03-14T03:32:26;10.20;99.90
18807;DHT22;9531;52.030;4.380;2023-03-14T03:34:53;10.20;99.90
18807;DHT22;9531;52.030;4.380;2023-03-14T03:37:20;10.20;99.90
18807;DHT22;9531;52.030;4.380;2023-03-14T03:39:47;10.20;99.90
18807;DHT22;9531;52.030;4.380;2023-03-14T03:42:16;10.20;99.90
18807;DHT22;9531;52.030;4.380;2023-03-14T03:44:43;10.20;99.90
18807;DHT22;9531;52.030;4.380;2023-03-14T03:47:10;10.20;99.90
18807;DHT22;9531;52.030;4.380;2023-03-14T03:49:38;10.20;99.90
18807;DHT22;9531;52.030;4.380;2023-03-14T03:52:05;10.20;99.90
18807;DHT22;9531;52.030;4.380;2023-03-14T03:54:33;10.20;99.90
18807;DHT22;9531;52.030;4.380;2023-03-14T03:57:00;10.20;99.90
18807;DHT22;9531;52.030;4.380;2023-03-14T03:59:27;10.20;99.90
18807;DHT22;9531;52.030;4.380;2023-03-14T04:01:54;10.20;99.90
18807;DHT22;9531;52.030;4.380;2023-03-14T04:04:21;10.20;99.90
18807;DHT22;9531;52.030;4.380;2023-03-14T04:06:49;10.20;99.90
18807;DHT22;9531;52.030;4.380;2023-03-14T04:09:16;10.20;99.90
18807;DHT22;9531;52.030;4.380;2023-03-14T04:11:43;10.20;99.90
18807;DHT22;9531;52.030;4.380;2023-03-14T04:14:10;10.10;99.90
18807;DHT22;9531;52.030;4.380;2023-03-14T04:16:37;10.10;99.90
18807;DHT22;9531;52.030;4.380;2023-03-14T04:19:04;10.10;99.90
18807;DHT22;9531;52.030;4.380;2023-03-14T04:21:31;10.00;99.90
18807;DHT22;9531;52.030;4.380;2023-03-14T04:24:00;10.00;99.90
18807;DHT22;9531;52.030;4.380;2023-03-14T04:26:28;10.00;99.90
18807;DHT22;9531;52.030;4.380;2023-03-14T04:28:55;10.00;99.90
18807;DHT22;9531;52.030;4.380;2023-03-14T04:31:22;10.00;99.90
18807;DHT22;9531;52.030;4.380;2023-03-14T04:33:49;10.00;99.90
18807;DHT22;9531;52.030;4.380;2023-03-14T04:36:16;10.00;99.90
18807;DHT22;9531;52.030;4.380;2023-03-14T04:38:43;10.00;99.90
18807;DHT22;9531;52.030;4.380;2023-03-14T04:41:11;9.90;99.90
18807;DHT22;9531;52.030;4.380;2023-03-14T04:43:38;9.90;99.90
18807;DHT22;9531;52.030;4.380;2023-03-14T04:46:06;9.90;99.90
18807;DHT22;9531;52.030;4.380;2023-03-14T04:48:33;9.90;99.90
18807;DHT22;9531;52.030;4.380;2023-03-14T04:51:00;9.80;99.90
18807;DHT22;9531;52.030;4.380;2023-03-14T04:53:27;9.80;99.90
18807;DHT22;9531;52.030;4.380;2023-03-14T04:55:55;9.80;99.90
18807;DHT22;9531;52.030;4.380;2023-03-14T04:58:24;9.80;99.90
18807;DHT22;9531;52.030;4.380;2023-03-14T05:00:51;9.80;99.90
18807;DHT22;9531;52.030;4.380;2023-03-14T05:03:18;9.70;99.90
18807;DHT22;9531;52.030;4.380;2023-03-14T05:05:46;9.70;99.90
18807;DHT22;9531;52.030;4.380;2023-03-14T05:08:13;9.70;99.90
18807;DHT22;9531;52.030;4.380;2023-03-14T05:10:39;9.70;99.90
18807;DHT22;9531;52.030;4.380;2023-03-14T05:13:07;9.70;99.90
18807;DHT22;9531;52.030;4.380;2023-03-14T05:15:36;9.70;99.90
18807;DHT22;9531;52.030;4.380;2023-03-14T05:18:03;9.70;99.90
18807;DHT22;9531;52.030;4.380;2023-03-14T05:20:30;9.70;99.90
18807;DHT22;9531;52.030;4.380;2023-03-14T05:22:57;9.70;99.90
18807;DHT22;9531;52.030;4.380;2023-03-14T05:25:24;9.70;99.90
18807;DHT22;9531;52.030;4.380;2023-03-14T05:27:53;9.70;99.90
18807;DHT22;9531;52.030;4.380;2023-03-14T05:30:20;9.60;99.90
18807;DHT22;9531;52.030;4.380;2023-03-14T05:32:49;9.70;99.90
18807;DHT22;9531;52.030;4.380;2023-03-14T05:35:16;9.60;99.90
18807;DHT22;9531;52.030;4.380;2023-03-14T05:37:43;9.60;99.90
18807;DHT22;9531;52.030;4.380;2023-03-14T05:40:11;9.60;99.90
18807;DHT22;9531;52.030;4.380;2023-03-14T05:42:38;9.60;99.90
18807;DHT22;9531;52.030;4.380;2023-03-14T05:45:08;9.60;99.90
18807;DHT22;9531;52.030;4.380;2023-03-14T05:47:37;9.50;99.90
18807;DHT22;9531;52.030;4.380;2023-03-14T05:50:06;9.50;99.90
18807;DHT22;9531;52.030;4.380;2023-03-14T05:52:34;9.50;99.90
18807;DHT22;9531;52.030;4.380;2023-03-14T05:55:00;9.40;99.90
18807;DHT22;9531;52.030;4.380;2023-03-14T05:57:27;9.50;99.90
18807;DHT22;9531;52.030;4.380;2023-03-14T05:59:54;9.40;99.90
18807;DHT22;9531;52.030;4.380;2023-03-14T06:02:22;9.30;99.90
18807;DHT22;9531;52.030;4.380;2023-03-14T06:04:49;9.40;99.90
18807;DHT22;9531;52.030;4.380;2023-03-14T06:07:17;9.30;99.90
18807;DHT22;9531;52.030;4.380;2023-03-14T06:09:44;9.30;99.90
18807;DHT22;9531;52.030;4.380;2023-03-14T06:12:11;9.20;99.90
18807;DHT22;9531;52.030;4.380;2023-03-14T06:14:38;9.20;99.90
18807;DHT22;9531;52.030;4.380;2023-03-14T06:17:04;9.20;99.90
18807;DHT22;9531;52.030;4.380;2023-03-14T06:19:31;9.20;99.90
18807;DHT22;9531;52.030;4.380;2023-03-14T06:21:58;9.20;99.90
18807;DHT22;9531;52.030;4.380;2023-03-14T06:24:27;9.20;99.90
18807;DHT22;9531;52.030;4.380;2023-03-14T06:26:54;9.20;99.90
18807;DHT22;9531;52.030;4.380;2023-03-14T06:29:22;9.10;99.90
18807;DHT22;9531;52.030;4.380;2023-03-14T06:31:50;9.10;99.90
18807;DHT22;9531;52.030;4.380;2023-03-14T06:34:19;9.10;99.90
18807;DHT22;9531;52.030;4.380;2023-03-14T06:36:46;9.10;99.90
18807;DHT22;9531;52.030;4.380;2023-03-14T06:39:13;9.10;99.90
18807;DHT22;9531;52.030;4.380;2023-03-14T06:41:42;9.00;99.90
18807;DHT22;9531;52.030;4.380;2023-03-14T06:44:09;9.00;99.90
18807;DHT22;9531;52.030;4.380;2023-03-14T06:46:36;9.00;99.90
18807;DHT22;9531;52.030;4.380;2023-03-14T06:49:05;9.00;99.90
18807;DHT22;9531;52.030;4.380;2023-03-14T06:51:33;8.90;99.90
18807;DHT22;9531;52.030;4.380;2023-03-14T06:54:01;8.90;99.90
18807;DHT22;9531;52.030;4.380;2023-03-14T06:56:30;8.90;99.90
18807;DHT22;9531;52.030;4.380;2023-03-14T06:59:00;8.90;99.90
18807;DHT22;9531;52.030;4.380;2023-03-14T07:01:28;8.90;99.90
18807;DHT22;9531;52.030;4.380;2023-03-14T07:03:55;8.90;99.90
18807;DHT22;9531;52.030;4.380;2023-03-14T07:06:23;8.90;99.90
18807;DHT22;9531;52.030;4.380;2023-03-14T07:08:50;8.90;99.90
18807;DHT22;9531;52.030;4.380;2023-03-14T07:11:17;8.80;99.90
18807;DHT22;9531;52.030;4.380;2023-03-14T07:13:44;8.80;99.90
18807;DHT22;9531;52.030;4.380;2023-03-14T07:16:12;8.80;99.90
18807;DHT22;9531;52.030;4.380;2023-03-14T07:18:40;8.80;99.90
18807;DHT22;9531;52.030;4.380;2023-03-14T07:21:08;8.80;99.90
18807;DHT22;9531;52.030;4.380;2023-03-14T07:23:35;8.80;99.90
18807;DHT22;9531;52.030;4.380;2023-03-14T07:26:02;8.80;99.90
18807;DHT22;9531;52.030;4.380;2023-03-14T07:28:29;8.80;99.90
18807;DHT22;9531;52.030;4.380;2023-03-14T07:30:56;8.80;99.90
18807;DHT22;9531;52.030;4.380;2023-03-14T07:33:24;8.80;99.90
18807;DHT22;9531;52.030;4.380;2023-03-14T07:35:52;8.80;99.90
18807;DHT22;9531;52.030;4.380;2023-03-14T07:38:19;8.80;99.90
18807;DHT22;9531;52.030;4.380;2023-03-14T07:40:47;8.80;99.90
18807;DHT22;9531;52.030;4.380;2023-03-14T07:43:14;8.80;99.90
18807;DHT22;9531;52.030;4.380;2023-03-14T07:45:44;8.90;99.90
18807;DHT22;9531;52.030;4.380;2023-03-14T07:48:11;8.80;99.90
18807;DHT22;9531;52.030;4.380;2023-03-14T07:50:40;8.80;99.90
18807;DHT22;9531;52.030;4.380;2023-03-14T07:53:07;8.80;99.90
18807;DHT22;9531;52.030;4.380;2023-03-14T07:55:34;8.80;99.90
18807;DHT22;9531;52.030;4.380;2023-03-14T07:58:00;8.80;99.90
18807;DHT22;9531;52.030;4.380;2023-03-14T08:00:28;8.80;99.90
18807;DHT22;9531;52.030;4.380;2023-03-14T08:02:55;8.70;99.90
18807;DHT22;9531;52.030;4.380;2023-03-14T08:05:22;8.80;99.90
18807;DHT22;9531;52.030;4.380;2023-03-14T08:07:50;8.70;99.90
18807;DHT22;9531;52.030;4.380;2023-03-14T08:10:17;8.70;99.90
18807;DHT22;9531;52.030;4.380;2023-03-14T08:12:50;8.70;99.90
18807;DHT22;9531;52.030;4.380;2023-03-14T08:15:18;8.70;99.90
18807;DHT22;9531;52.030;4.380;2023-03-14T08:17:45;8.70;99.90
18807;DHT22;9531;52.030;4.380;2023-03-14T08:20:16;8.70;99.90
18807;DHT22;9531;52.030;4.380;2023-03-14T08:22:44;8.80;99.90
18807;DHT22;9531;52.030;4.380;2023-03-14T08:25:14;8.70;99.90
18807;DHT22;9531;52.030;4.380;2023-03-14T08:27:41;8.70;99.90
18807;DHT22;9531;52.030;4.380;2023-03-14T08:30:10;8.70;99.90
18807;DHT22;9531;52.030;4.380;2023-03-14T08:32:38;8.70;99.90
18807;DHT22;9531;52.030;4.380;2023-03-14T08:35:06;8.70;99.90
18807;DHT22;9531;52.030;4.380;2023-03-14T08:37:34;8.70;99.90
18807;DHT22;9531;52.030;4.380;2023-03-14T08:40:02;8.70;99.90
18807;DHT22;9531;52.030;4.380;2023-03-14T08:42:33;8.60;99.90
18807;DHT22;9531;52.030;4.380;2023-03-14T08:45:00;8.50;99.90
18807;DHT22;9531;52.030;4.380;2023-03-14T08:47:27;8.50;99.90
18807;DHT22;9531;52.030;4.380;2023-03-14T08:49:55;8.60;99.90
18807;DHT22;9531;52.030;4.380;2023-03-14T08:52:22;8.60;99.90
18807;DHT22;9531;52.030;4.380;2023-03-14T08:54:49;8.70;99.90
18807;DHT22;9531;52.030;4.380;2023-03-14T08:57:16;8.70;99.90
18807;DHT22;9531;52.030;4.380;2023-03-14T08:59:45;8.80;99.90
18807;DHT22;9531;52.030;4.380;2023-03-14T09:02:12;8.90;99.90
18807;DHT22;9531;52.030;4.380;2023-03-14T09:04:39;8.90;99.90
18807;DHT22;9531;52.030;4.380;2023-03-14T09:07:06;8.90;99.90
18807;DHT22;9531;52.030;4.380;2023-03-14T09:09:33;9.00;99.90
18807;DHT22;9531;52.030;4.380;2023-03-14T09:12:00;9.00;99.90
18807;DHT22;9531;52.030;4.380;2023-03-14T09:14:27;9.10;99.90
18807;DHT22;9531;52.030;4.380;2023-03-14T09:16:56;9.10;99.90
18807;DHT22;9531;52.030;4.380;2023-03-14T09:19:23;9.10;99.90
18807;DHT22;9531;52.030;4.380;2023-03-14T09:21:50;9.20;99.90
18807;DHT22;9531;52.030;4.380;2023-03-14T09:24:17;9.30;99.90
18807;DHT22;9531;52.030;4.380;2023-03-14T09:26:44;9.30;99.90
18807;DHT22;9531;52.030;4.380;2023-03-14T09:29:11;9.30;99.90
18807;DHT22;9531;52.030;4.380;2023-03-14T09:31:38;9.30;99.90
18807;DHT22;9531;52.030;4.380;2023-03-14T09:34:06;9.40;99.90
18807;DHT22;9531;52.030;4.380;2023-03-14T09:36:33;9.30;99.90
18807;DHT22;9531;52.030;4.380;2023-03-14T09:39:00;9.30;99.90
18807;DHT22;9531;52.030;4.380;2023-03-14T09:41:29;9.20;99.90
18807;DHT22;9531;52.030;4.380;2023-03-14T09:44:02;9.20;99.90
18807;DHT22;9531;52.030;4.380;2023-03-14T09:46:33;9.10;99.90
18807;DHT22;9531;52.030;4.380;2023-03-14T09:49:02;9.10;99.90
18807;DHT22;9531;52.030;4.380;2023-03-14T09:51:37;9.30;99.90
18807;DHT22;9531;52.030;4.380;2023-03-14T09:54:05;9.70;99.90
18807;DHT22;9531;52.030;4.380;2023-03-14T09:56:35;10.00;99.90
18807;DHT22;9531;52.030;4.380;2023-03-14T09:59:05;10.50;99.90
18807;DHT22;9531;52.030;4.380;2023-03-14T10:01:35;10.80;99.90
18807;DHT22;9531;52.030;4.380;2023-03-14T10:04:05;11.10;99.90
18807;DHT22;9531;52.030;4.380;2023-03-14T10:06:34;11.10;99.90
18807;DHT22;9531;52.030;4.380;2023-03-14T10:09:03;11.20;99.90
18807;DHT22;9531;52.030;4.380;2023-03-14T10:11:31;11.10;99.90
18807;DHT22;9531;52.030;4.380;2023-03-14T10:14:06;11.10;99.90
18807;DHT22;9531;52.030;4.380;2023-03-14T10:16:35;11.00;99.90
18807;DHT22;9531;52.030;4.380;2023-03-14T10:19:05;10.90;99.90
18807;DHT22;9531;52.030;4.380;2023-03-14T10:21:36;10.80;99.90
18807;DHT22;9531;52.030;4.380;2023-03-14T10:24:18;10.70;99.90
18807;DHT22;9531;52.030;4.380;2023-03-14T10:26:48;10.70;99.90
18807;DHT22;9531;52.030;4.380;2023-03-14T10:29:16;10.60;99.90
18807;DHT22;9531;52.030;4.380;2023-03-14T10:31:51;10.60;99.90
18807;DHT22;9531;52.030;4.380;2023-03-14T10:34:23;10.60;99.90
18807;DHT22;9531;52.030;4.380;2023-03-14T10:36:55;10.50;99.90
18807;DHT22;9531;52.030;4.380;2023-03-14T10:39:27;10.50;99.90
18807;DHT22;9531;52.030;4.380;2023-03-14T10:42:02;10.50;99.90
18807;DHT22;9531;52.030;4.380;2023-03-14T10:44:30;10.50;99.90
18807;DHT22;9531;52.030;4.380;2023-03-14T10:47:00;10.40;99.90
18807;DHT22;9531;52.030;4.380;2023-03-14T10:49:29;10.40;99.90
18807;DHT22;9531;52.030;4.380;2023-03-14T10:52:01;10.40;99.90
18807;DHT22;9531;52.030;4.380;2023-03-14T10:54:30;10.50;99.90
18807;DHT22;9531;52.030;4.380;2023-03-14T10:56:59;10.50;99.90
18807;DHT22;9531;52.030;4.380;2023-03-14T10:59:29;10.50;99.90
18807;DHT22;9531;52.030;4.380;2023-03-14T11:02:04;10.50;99.90
18807;DHT22;9531;52.030;4.380;2023-03-14T11:04:50;10.50;99.90
18807;DHT22;9531;52.030;4.380;2023-03-14T11:07:26;10.60;99.90
18807;DHT22;9531;52.030;4.380;2023-03-14T11:10:00;10.70;99.90
18807;DHT22;9531;52.030;4.380;2023-03-14T11:12:38;11.00;99.90
18807;DHT22;9531;52.030;4.380;2023-03-14T11:15:17;11.50;99.90
18807;DHT22;9531;52.030;4.380;2023-03-14T11:17:51;12.10;99.90
18807;DHT22;9531;52.030;4.380;2023-03-14T11:20:32;12.90;99.90
18807;DHT22;9531;52.030;4.380;2023-03-14T11:23:07;13.70;99.90
18807;DHT22;9531;52.030;4.380;2023-03-14T11:25:43;14.50;99.90
18807;DHT22;9531;52.030;4.380;2023-03-14T11:28:18;15.20;99.90
18807;DHT22;9531;52.030;4.380;2023-03-14T11:30:51;15.80;99.90
18807;DHT22;9531;52.030;4.380;2023-03-14T11:33:22;16.40;99.90
18807;DHT22;9531;52.030;4.380;2023-03-14T11:35:57;16.90;99.90
18807;DHT22;9531;52.030;4.380;2023-03-14T11:38:30;17.30;99.90
18807;DHT22;9531;52.030;4.380;2023-03-14T11:41:01;17.70;99.90
18807;DHT22;9531;52.030;4.380;2023-03-14T11:43:29;18.00;99.90
18807;DHT22;9531;52.030;4.380;2023-03-14T11:46:04;18.30;99.90
18807;DHT22;9531;52.030;4.380;2023-03-14T11:48:42;18.70;99.90
18807;DHT22;9531;52.030;4.380;2023-03-14T11:51:16;18.90;99.90
18807;DHT22;9531;52.030;4.380;2023-03-14T11:53:50;19.20;99.90
18807;DHT22;9531;52.030;4.380;2023-03-14T11:56:27;19.40;99.90
18807;DHT22;9531;52.030;4.380;2023-03-14T11:58:59;19.60;99.90
18807;DHT22;9531;52.030;4.380;2023-03-14T12:01:37;19.70;99.90
18807;DHT22;9531;52.030;4.380;2023-03-14T12:04:13;19.70;99.90
18807;DHT22;9531;52.030;4.380;2023-03-14T12:06:47;19.50;99.90
18807;DHT22;9531;52.030;4.380;2023-03-14T12:09:16;19.40;99.90
18807;DHT22;9531;52.030;4.380;2023-03-14T12:11:48;19.20;99.90
18807;DHT22;9531;52.030;4.380;2023-03-14T12:14:21;19.00;99.90
18807;DHT22;9531;52.030;4.380;2023-03-14T12:16:50;18.90;99.90
18807;DHT22;9531;52.030;4.380;2023-03-14T12:19:28;18.80;99.90
18807;DHT22;9531;52.030;4.380;2023-03-14T12:21:59;18.70;99.90
18807;DHT22;9531;52.030;4.380;2023-03-14T12:24:30;18.70;99.90
18807;DHT22;9531;52.030;4.380;2023-03-14T12:27:00;18.60;99.90
18807;DHT22;9531;52.030;4.380;2023-03-14T12:29:28;18.70;99.90
18807;DHT22;9531;52.030;4.380;2023-03-14T12:32:12;18.90;99.90
18807;DHT22;9531;52.030;4.380;2023-03-14T12:34:48;19.00;99.90
18807;DHT22;9531;52.030;4.380;2023-03-14T12:37:26;19.20;99.90
18807;DHT22;9531;52.030;4.380;2023-03-14T12:40:13;19.40;99.90
18807;DHT22;9531;52.030;4.380;2023-03-14T12:42:57;19.60;99.90
18807;DHT22;9531;52.030;4.380;2023-03-14T12:45:29;19.70;99.90
18807;DHT22;9531;52.030;4.380;2023-03-14T12:48:03;19.90;99.90
18807;DHT22;9531;52.030;4.380;2023-03-14T12:50:35;20.10;99.90
18807;DHT22;9531;52.030;4.380;2023-03-14T12:53:41;20.30;99.90
18807;DHT22;9531;52.030;4.380;2023-03-14T12:56:20;20.50;99.90
18807;DHT22;9531;52.030;4.380;2023-03-14T12:59:05;20.50;99.90
18807;DHT22;9531;52.030;4.380;2023-03-14T13:01:47;20.50;99.90
18807;DHT22;9531;52.030;4.380;2023-03-14T13:04:26;20.50;99.90
18807;DHT22;9531;52.030;4.380;2023-03-14T13:06:55;20.50;99.90
18807;DHT22;9531;52.030;4.380;2023-03-14T13:09:49;20.50;99.90
18807;DHT22;9531;52.030;4.380;2023-03-14T13:12:19;20.50;99.90
18807;DHT22;9531;52.030;4.380;2023-03-14T13:14:51;20.30;99.90
18807;DHT22;9531;52.030;4.380;2023-03-14T13:17:23;20.10;99.90
18807;DHT22;9531;52.030;4.380;2023-03-14T13:19:53;19.90;99.90
18807;DHT22;9531;52.030;4.380;2023-03-14T13:22:24;19.70;99.90
18807;DHT22;9531;52.030;4.380;2023-03-14T13:25:02;19.40;99.90
18807;DHT22;9531;52.030;4.380;2023-03-14T13:27:31;19.10;99.90
18807;DHT22;9531;52.030;4.380;2023-03-14T13:30:05;18.90;99.90
18807;DHT22;9531;52.030;4.380;2023-03-14T13:32:42;18.70;99.90
18807;DHT22;9531;52.030;4.380;2023-03-14T13:35:16;18.50;99.90
18807;DHT22;9531;52.030;4.380;2023-03-14T13:37:43;18.30;99.90
18807;DHT22;9531;52.030;4.380;2023-03-14T13:40:20;18.00;99.90
18807;DHT22;9531;52.030;4.380;2023-03-14T13:42:47;17.80;99.90
18807;DHT22;9531;52.030;4.380;2023-03-14T13:45:16;17.60;99.90
18807;DHT22;9531;52.030;4.380;2023-03-14T13:47:43;17.40;99.90
18807;DHT22;9531;52.030;4.380;2023-03-14T13:50:16;17.20;99.90
18807;DHT22;9531;52.030;4.380;2023-03-14T13:52:43;17.00;99.90
18807;DHT22;9531;52.030;4.380;2023-03-14T13:55:15;16.80;99.90
18807;DHT22;9531;52.030;4.380;2023-03-14T13:57:44;16.70;99.90
18807;DHT22;9531;52.030;4.380;2023-03-14T14:00:22;16.50;99.90
18807;DHT22;9531;52.030;4.380;2023-03-14T14:02:53;16.30;99.90
18807;DHT22;9531;52.030;4.380;2023-03-14T14:05:21;16.20;99.90
18807;DHT22;9531;52.030;4.380;2023-03-14T14:07:49;16.00;99.90
18807;DHT22;9531;52.030;4.380;2023-03-14T14:10:16;15.90;99.90
18807;DHT22;9531;52.030;4.380;2023-03-14T14:12:47;15.80;99.90
18807;DHT22;9531;52.030;4.380;2023-03-14T14:15:25;15.60;99.90
18807;DHT22;9531;52.030;4.380;2023-03-14T14:17:54;15.50;99.90
18807;DHT22;9531;52.030;4.380;2023-03-14T14:20:26;15.30;99.90
18807;DHT22;9531;52.030;4.380;2023-03-14T14:22:58;15.20;99.90
18807;DHT22;9531;52.030;4.380;2023-03-14T14:25:26;15.00;99.90
18807;DHT22;9531;52.030;4.380;2023-03-14T14:27:54;14.90;99.90
18807;DHT22;9531;52.030;4.380;2023-03-14T14:30:29;14.80;99.90
18807;DHT22;9531;52.030;4.380;2023-03-14T14:33:12;14.70;99.90
18807;DHT22;9531;52.030;4.380;2023-03-14T14:35:50;14.60;99.90
18807;DHT22;9531;52.030;4.380;2023-03-14T14:38:18;14.50;99.90
18807;DHT22;9531;52.030;4.380;2023-03-14T14:40:48;14.50;99.90
18807;DHT22;9531;52.030;4.380;2023-03-14T14:43:17;14.40;99.90
18807;DHT22;9531;52.030;4.380;2023-03-14T14:45:49;14.30;99.90
18807;DHT22;9531;52.030;4.380;2023-03-14T14:48:20;14.20;99.90
18807;DHT22;9531;52.030;4.380;2023-03-14T14:50:56;14.20;99.90
18807;DHT22;9531;52.030;4.380;2023-03-14T14:53:29;14.20;99.90
18807;DHT22;9531;52.030;4.380;2023-03-14T14:55:59;14.20;99.90
18807;DHT22;9531;52.030;4.380;2023-03-14T14:58:34;14.10;99.90
18807;DHT22;9531;52.030;4.380;2023-03-14T15:01:07;14.10;99.90
18807;DHT22;9531;52.030;4.380;2023-03-14T15:03:35;14.00;99.90
18807;DHT22;9531;52.030;4.380;2023-03-14T15:06:03;14.00;99.90
18807;DHT22;9531;52.030;4.380;2023-03-14T15:08:30;14.00;99.90
18807;DHT22;9531;52.030;4.380;2023-03-14T15:10:57;13.90;99.90
18807;DHT22;9531;52.030;4.380;2023-03-14T15:13:25;13.90;99.90
18807;DHT22;9531;52.030;4.380;2023-03-14T15:15:52;13.90;99.90
18807;DHT22;9531;52.030;4.380;2023-03-14T15:18:24;13.90;99.90
18807;DHT22;9531;52.030;4.380;2023-03-14T15:20:51;13.90;99.90
18807;DHT22;9531;52.030;4.380;2023-03-14T15:23:21;13.80;99.90
18807;DHT22;9531;52.030;4.380;2023-03-14T15:25:48;13.80;99.90
18807;DHT22;9531;52.030;4.380;2023-03-14T15:28:18;13.70;99.90
18807;DHT22;9531;52.030;4.380;2023-03-14T15:30:46;13.60;99.90
18807;DHT22;9531;52.030;4.380;2023-03-14T15:33:14;13.60;99.90
18807;DHT22;9531;52.030;4.380;2023-03-14T15:35:45;13.50;99.90
18807;DHT22;9531;52.030;4.380;2023-03-14T15:38:14;13.40;99.90
18807;DHT22;9531;52.030;4.380;2023-03-14T15:40:41;13.30;99.90
18807;DHT22;9531;52.030;4.380;2023-03-14T15:43:09;13.30;99.90
18807;DHT22;9531;52.030;4.380;2023-03-14T15:45:36;13.20;99.90
18807;DHT22;9531;52.030;4.380;2023-03-14T15:48:04;13.20;99.90
18807;DHT22;9531;52.030;4.380;2023-03-14T15:50:31;13.10;99.90
18807;DHT22;9531;52.030;4.380;2023-03-14T15:52:59;13.00;99.90
18807;DHT22;9531;52.030;4.380;2023-03-14T15:55:26;12.90;99.90
18807;DHT22;9531;52.030;4.380;2023-03-14T15:57:54;12.90;99.90
18807;DHT22;9531;52.030;4.380;2023-03-14T16:00:22;12.80;99.90
18807;DHT22;9531;52.030;4.380;2023-03-14T16:02:50;12.80;99.90
18807;DHT22;9531;52.030;4.380;2023-03-14T16:05:17;12.70;99.90
18807;DHT22;9531;52.030;4.380;2023-03-14T16:07:46;12.60;99.90